Terminal Aerodrome Forecast
Issued by NWS

Home | Current Version | Previous Version | Text Only | Print | Product List | Glossary On
Versions: 1 2 3 4 5 6 7 8 9 10 11 12 13 14 15 16 17 18 19 20 21 22 23 24
651
FTUS42 KGSP 261120
TAFAND
TAF
KAND 261120Z 2612/2712 04003KT P6SM BKN050
     FM261700 10003KT P6SM VCSH OVC035
     FM261900 31004KT P6SM -SHRA OVC025
      TEMPO 2620/2624 3SM TSRA OVC012CB
     FM270000 05004KT 3SM -SHRA OVC010
     FM270600 VRB02KT 6SM BR BKN007=

USA.gov is the U.S. government's official web portal to all federal, state and local government web resources and services.